Time;durP1;ratioP1;P1;durP2;ratioP2;P2;SDS_P1;SDS_P2;PMS_P1;PMS_P2;Temp;Humidity;BMP_temperature;BMP_pressure;BME280_temperature;BME280_humidity;BME280_pressure;Samples;Min_cycle;Max_cycle;Signal;HPM_P1;HPM_P2
2021/06/25 00:01:48;;;;;;;27.90;20.00;;;;;;;17.37;100.00;99617.59;5113813;28;20336;-73
2021/06/25 00:04:15;;;;;;;29.02;21.55;;;;;;;17.22;100.00;99617.88;5112893;28;20232;-74
2021/06/25 00:06:45;;;;;;;32.10;22.17;;;;;;;17.21;100.00;99623.47;5113731;28;20188;-72
2021/06/25 00:09:12;;;;;;;33.95;22.80;;;;;;;17.05;100.00;99627.50;5114009;28;20195;-72
2021/06/25 00:11:39;;;;;;;35.13;23.48;;;;;;;16.98;100.00;99626.28;5114058;28;20274;-71
2021/06/25 00:14:06;;;;;;;39.20;26.55;;;;;;;17.06;100.00;99618.31;5113833;28;20187;-73
2021/06/25 00:16:33;;;;;;;38.45;26.42;;;;;;;16.96;100.00;99622.84;5113857;28;20201;-72
2021/06/25 00:18:59;;;;;;;42.22;27.35;;;;;;;17.16;100.00;99625.69;5113961;28;20541;-72
2021/06/25 00:21:26;;;;;;;41.05;28.90;;;;;;;17.00;100.00;99628.84;5113725;28;20183;-72
2021/06/25 00:23:54;;;;;;;39.55;27.55;;;;;;;17.00;100.00;99631.56;5113399;28;20192;-73
2021/06/25 00:26:21;;;;;;;40.20;27.95;;;;;;;17.03;100.00;99621.31;5099267;28;20191;-72
2021/06/25 00:28:47;;;;;;;41.65;28.00;;;;;;;17.10;100.00;99621.66;5097506;28;20218;-71
2021/06/25 00:31:14;;;;;;;43.75;28.95;;;;;;;17.04;100.00;99620.31;5113839;28;20187;-71
2021/06/25 00:33:40;;;;;;;40.65;28.35;;;;;;;17.15;100.00;99615.81;5113404;28;20285;-73
2021/06/25 00:36:07;;;;;;;42.55;29.60;;;;;;;17.08;100.00;99621.78;5113473;28;20203;-72
2021/06/25 00:38:34;;;;;;;41.58;28.15;;;;;;;17.07;100.00;99617.34;5113134;28;20275;-71
2021/06/25 00:41:02;;;;;;;44.85;29.45;;;;;;;17.24;100.00;99613.16;5113046;28;20203;-72
2021/06/25 00:43:28;;;;;;;43.00;30.17;;;;;;;17.30;100.00;99612.66;5112874;28;20274;-72
2021/06/25 00:45:55;;;;;;;42.05;29.63;;;;;;;17.38;100.00;99602.97;5112937;28;20768;-71
2021/06/25 00:48:21;;;;;;;45.85;30.02;;;;;;;17.45;100.00;99604.16;5113412;28;20571;-71
2021/06/25 00:50:48;;;;;;;48.80;31.23;;;;;;;17.48;100.00;99603.91;5113322;28;20202;-73
2021/06/25 00:53:15;;;;;;;37.55;28.35;;;;;;;17.28;100.00;99602.91;5113419;28;20270;-72
2021/06/25 00:55:44;;;;;;;26.58;20.60;;;;;;;17.17;100.00;99611.97;5107447;28;20192;-72
2021/06/25 00:58:16;;;;;;;27.27;19.92;;;;;;;17.07;100.00;99605.56;5092563;28;20219;-72
2021/06/25 01:00:43;;;;;;;28.05;20.17;;;;;;;17.14;100.00;99611.34;5092334;28;20180;-72
2021/06/25 01:03:10;;;;;;;22.67;17.70;;;;;;;17.19;100.00;99604.56;5092787;28;20610;-72
2021/06/25 01:05:37;;;;;;;26.00;18.65;;;;;;;17.29;100.00;99612.78;5092261;28;20238;-72
2021/06/25 01:08:06;;;;;;;19.20;16.30;;;;;;;17.37;100.00;99603.97;5093008;28;20526;-71
2021/06/25 01:10:32;;;;;;;20.08;17.35;;;;;;;17.39;100.00;99602.84;5094239;28;20324;-72
2021/06/25 01:12:59;;;;;;;18.60;14.73;;;;;;;17.41;100.00;99610.84;5092673;28;20287;-72
2021/06/25 01:15:28;;;;;;;18.27;16.30;;;;;;;17.32;100.00;99614.38;5092681;28;20231;-72
2021/06/25 01:17:55;;;;;;;18.13;16.08;;;;;;;17.17;100.00;99609.25;5092430;28;20188;-72
2021/06/25 01:20:25;;;;;;;22.25;17.45;;;;;;;17.35;100.00;99604.09;5092345;28;20203;-72
2021/06/25 01:22:54;;;;;;;22.30;18.65;;;;;;;17.25;100.00;99609.47;5092284;28;20197;-72
2021/06/25 01:25:23;;;;;;;25.38;19.40;;;;;;;17.30;100.00;99611.81;5092300;28;20310;-72
2021/06/25 01:27:52;;;;;;;28.67;19.92;;;;;;;17.30;100.00;99615.38;5093327;28;20196;-72
2021/06/25 01:30:21;;;;;;;28.63;21.90;;;;;;;17.21;100.00;99612.59;5092130;28;20196;-71
2021/06/25 01:32:49;;;;;;;30.77;23.58;;;;;;;17.21;100.00;99613.44;5092045;28;20257;-72
2021/06/25 01:35:17;;;;;;;28.60;23.30;;;;;;;17.29;100.00;99610.91;5092320;28;20185;-72
2021/06/25 01:37:44;;;;;;;32.00;25.00;;;;;;;17.30;100.00;99600.91;5092209;28;20556;-71
2021/06/25 01:40:15;;;;;;;29.00;24.30;;;;;;;17.36;100.00;99608.53;5092403;28;20196;-72
2021/06/25 01:42:44;;;;;;;32.83;24.40;;;;;;;17.38;100.00;99609.25;5091898;28;20227;-72
2021/06/25 01:45:13;;;;;;;32.17;25.20;;;;;;;17.26;100.00;99610.34;5092245;28;20220;-71
2021/06/25 01:47:42;;;;;;;32.25;25.80;;;;;;;17.44;100.00;99610.59;5091867;28;20200;-71
2021/06/25 01:50:11;;;;;;;33.10;26.20;;;;;;;17.35;100.00;99606.81;5092139;28;20292;-71
2021/06/25 01:52:43;;;;;;;33.50;26.42;;;;;;;17.34;100.00;99604.22;5093942;28;20546;-71
2021/06/25 01:55:10;;;;;;;33.53;27.35;;;;;;;17.32;100.00;99608.94;5107914;28;20600;-71
2021/06/25 01:57:38;;;;;;;33.55;26.15;;;;;;;17.43;100.00;99612.44;5115790;28;20235;-71
2021/06/25 02:00:07;;;;;;;34.42;26.55;;;;;;;17.59;100.00;99606.56;5116146;28;20578;-71
2021/06/25 02:02:34;;;;;;;33.55;26.58;;;;;;;17.42;100.00;99599.84;5116050;28;20267;-72
2021/06/25 02:05:01;;;;;;;33.72;27.35;;;;;;;17.38;100.00;99601.09;5104306;28;20239;-72
2021/06/25 02:07:28;;;;;;;35.75;26.02;;;;;;;17.26;100.00;99604.88;5095623;28;20189;-71
2021/06/25 02:09:56;;;;;;;31.85;24.90;;;;;;;17.36;100.00;99602.22;5095627;28;20232;-71
2021/06/25 02:12:24;;;;;;;34.13;25.05;;;;;;;17.18;100.00;99604.66;5095513;28;20269;-70
2021/06/25 02:14:52;;;;;;;29.23;24.70;;;;;;;17.13;100.00;99604.22;5095194;28;20189;-71
2021/06/25 02:17:19;;;;;;;29.90;25.33;;;;;;;17.04;100.00;99611.28;5095093;28;20212;-71
2021/06/25 02:19:46;;;;;;;27.73;23.13;;;;;;;17.02;100.00;99608.69;5094726;28;20206;-70
2021/06/25 02:22:13;;;;;;;32.42;24.58;;;;;;;16.92;100.00;99609.63;5095073;28;20189;-70
2021/06/25 02:24:39;;;;;;;30.02;23.83;;;;;;;17.20;100.00;99616.28;5095388;28;20233;-71
2021/06/25 02:27:07;;;;;;;28.02;22.48;;;;;;;17.17;100.00;99611.13;5095302;28;20192;-71
2021/06/25 02:29:34;;;;;;;29.30;23.83;;;;;;;17.19;100.00;99612.72;5095119;28;20223;-72
2021/06/25 02:32:02;;;;;;;28.60;23.23;;;;;;;17.25;100.00;99614.03;5094728;28;20203;-71
2021/06/25 02:34:29;;;;;;;25.80;21.50;;;;;;;17.07;100.00;99619.19;5094506;28;20230;-71
2021/06/25 02:36:55;;;;;;;25.90;22.52;;;;;;;17.06;100.00;99620.19;5094939;28;20185;-71
2021/06/25 02:39:22;;;;;;;27.80;23.23;;;;;;;16.99;100.00;99618.97;5094487;28;20204;-70
2021/06/25 02:41:49;;;;;;;28.45;21.83;;;;;;;16.89;100.00;99621.59;5094771;28;20291;-71
2021/06/25 02:44:15;;;;;;;27.88;22.88;;;;;;;16.75;100.00;99627.31;5094542;28;20192;-71
2021/06/25 02:46:42;;;;;;;30.05;23.30;;;;;;;16.81;100.00;99624.13;5094465;28;20330;-71
2021/06/25 02:49:10;;;;;;;27.98;22.60;;;;;;;16.68;100.00;99625.09;5094681;28;20188;-70
2021/06/25 02:51:37;;;;;;;30.17;24.10;;;;;;;16.80;100.00;99617.81;5094724;28;20800;-71
2021/06/25 02:54:04;;;;;;;31.25;24.95;;;;;;;16.59;100.00;99625.00;5099056;28;20217;-71
2021/06/25 02:56:30;;;;;;;29.55;24.27;;;;;;;16.68;100.00;99624.22;5114706;28;20219;-72
2021/06/25 02:58:57;;;;;;;32.83;25.15;;;;;;;16.69;100.00;99623.25;5115181;28;20274;-69
2021/06/25 03:01:23;;;;;;;31.60;25.40;;;;;;;16.59;100.00;99625.00;5114407;28;20199;-71
2021/06/25 03:03:50;;;;;;;33.75;26.60;;;;;;;16.46;100.00;99623.31;5113542;28;20685;-71
2021/06/25 03:06:18;;;;;;;31.83;27.00;;;;;;;16.51;100.00;99622.03;5114308;28;20298;-71
2021/06/25 03:08:45;;;;;;;33.75;26.38;;;;;;;16.57;100.00;99622.41;5114239;28;20199;-71
2021/06/25 03:11:11;;;;;;;35.65;29.52;;;;;;;16.54;100.00;99619.94;5114692;28;20202;-71
2021/06/25 03:13:38;;;;;;;35.97;27.83;;;;;;;16.38;100.00;99624.91;5114632;27;20270;-70
2021/06/25 03:16:05;;;;;;;36.13;28.98;;;;;;;16.56;100.00;99622.53;5114472;28;20525;-70
2021/06/25 03:18:32;;;;;;;41.60;30.30;;;;;;;16.43;100.00;99619.97;5114337;28;20240;-71
2021/06/25 03:20:58;;;;;;;37.40;29.60;;;;;;;16.55;100.00;99616.25;5114648;28;20202;-71
2021/06/25 03:23:26;;;;;;;37.20;29.40;;;;;;;16.74;100.00;99617.44;5114481;28;20670;-71
2021/06/25 03:25:53;;;;;;;35.58;27.30;;;;;;;16.59;100.00;99609.53;5098221;28;20206;-72
2021/06/25 03:28:20;;;;;;;33.58;27.35;;;;;;;16.77;100.00;99620.75;5093922;28;20188;-71
2021/06/25 03:30:47;;;;;;;33.80;28.33;;;;;;;16.78;100.00;99608.91;5094067;28;20673;-71
2021/06/25 03:33:13;;;;;;;35.97;27.10;;;;;;;16.85;100.00;99610.13;5093888;28;20195;-71
2021/06/25 03:35:40;;;;;;;36.92;29.23;;;;;;;16.87;100.00;99613.59;5093510;28;20232;-71
2021/06/25 03:38:06;;;;;;;39.20;29.90;;;;;;;16.97;100.00;99618.25;5093830;28;20180;-71
2021/06/25 03:40:36;;;;;;;37.15;29.23;;;;;;;16.87;100.00;99619.03;5093528;28;20182;-72
2021/06/25 03:43:03;;;;;;;36.75;28.58;;;;;;;16.91;100.00;99616.88;5093156;28;20232;-71
2021/06/25 03:45:30;;;;;;;33.65;28.27;;;;;;;16.88;100.00;99617.16;5093233;28;20292;-71
2021/06/25 03:47:56;;;;;;;36.38;28.95;;;;;;;16.79;100.00;99623.34;5093153;28;20189;-71
2021/06/25 03:50:23;;;;;;;35.72;28.30;;;;;;;17.01;100.00;99625.16;5093527;28;20199;-71
2021/06/25 03:52:50;;;;;;;36.88;29.40;;;;;;;17.23;100.00;99616.00;5093558;28;20252;-71
2021/06/25 03:55:17;;;;;;;36.40;27.65;;;;;;;17.09;100.00;99619.91;5093292;28;20220;-71
2021/06/25 03:57:45;;;;;;;41.75;30.23;;;;;;;16.77;100.00;99628.91;5093056;28;20205;-72
2021/06/25 04:00:14;;;;;;;40.85;31.73;;;;;;;16.74;100.00;99629.16;5093285;28;20577;-71
2021/06/25 04:02:41;;;;;;;41.35;32.20;;;;;;;16.74;100.00;99625.59;5093091;28;20725;-71
2021/06/25 04:05:09;;;;;;;42.15;31.52;;;;;;;16.84;100.00;99621.97;5092840;28;20307;-71
2021/06/25 04:07:37;;;;;;;48.90;32.72;;;;;;;16.79;100.00;99626.06;5093439;28;20233;-72
2021/06/25 04:10:05;;;;;;;45.35;33.75;;;;;;;16.85;100.00;99618.28;5093324;28;20281;-71
2021/06/25 04:12:32;;;;;;;44.13;33.08;;;;;;;16.80;100.00;99612.38;5092992;28;20301;-71
2021/06/25 04:15:00;;;;;;;46.72;34.97;;;;;;;16.75;100.00;99617.28;5092635;28;20228;-71
2021/06/25 04:17:27;;;;;;;49.90;35.35;;;;;;;16.74;100.00;99629.16;5092689;28;20194;-70
2021/06/25 04:19:54;;;;;;;47.45;34.38;;;;;;;16.87;100.00;99619.03;5110592;28;20549;-71
2021/06/25 04:22:20;;;;;;;46.88;34.42;;;;;;;16.90;100.00;99623.34;5112690;28;20223;-71
2021/06/25 04:24:48;;;;;;;46.72;34.22;;;;;;;16.97;100.00;99621.81;5113286;28;20187;-72
2021/06/25 04:27:15;;;;;;;52.83;35.60;;;;;;;17.02;100.00;99625.00;5112599;28;20305;-71
2021/06/25 04:29:42;;;;;;;51.83;36.45;;;;;;;16.82;100.00;99621.28;5112823;28;20266;-71
2021/06/25 04:32:11;;;;;;;51.42;37.88;;;;;;;16.87;100.00;99620.88;5113251;28;20619;-72
2021/06/25 04:34:38;;;;;;;52.83;37.97;;;;;;;16.93;100.00;99617.63;5112988;28;20205;-71
2021/06/25 04:37:05;;;;;;;46.25;35.38;;;;;;;16.97;100.00;99618.25;5113088;28;20192;-70
2021/06/25 04:39:32;;;;;;;51.42;37.38;;;;;;;16.93;100.00;99620.34;5112964;28;20205;-71
2021/06/25 04:41:58;;;;;;;49.60;38.58;;;;;;;16.80;100.00;99625.97;5113157;28;20528;-71
2021/06/25 04:44:25;;;;;;;50.50;37.95;;;;;;;16.90;100.00;99628.78;5113156;28;20192;-70
2021/06/25 04:46:51;;;;;;;52.08;38.67;;;;;;;16.87;100.00;99626.31;5112465;28;20219;-71
2021/06/25 04:49:19;;;;;;;49.92;37.88;;;;;;;16.68;100.00;99635.09;5094530;28;20542;-72
2021/06/25 04:51:46;;;;;;;50.70;37.15;;;;;;;16.79;100.00;99637.81;5092671;28;20296;-72
2021/06/25 04:54:13;;;;;;;50.25;38.00;;;;;;;16.85;100.00;99634.59;5092582;28;20665;-72
2021/06/25 04:56:40;;;;;;;54.08;38.45;;;;;;;16.87;100.00;99629.91;5092226;28;20578;-72
2021/06/25 04:59:06;;;;;;;52.00;37.72;;;;;;;16.78;100.00;99636.09;5092515;28;20225;-71
2021/06/25 05:01:35;;;;;;;51.65;36.67;;;;;;;16.96;100.00;99635.53;5093491;28;20299;-71
2021/06/25 05:04:01;;;;;;;50.20;37.55;;;;;;;16.86;100.00;99627.31;5104787;28;20314;-71
2021/06/25 05:06:29;;;;;;;54.65;37.08;;;;;;;16.81;100.00;99633.13;5072381;28;20211;-71
2021/06/25 05:08:56;;;;;;;56.28;38.75;;;;;;;16.87;100.00;99629.03;5079095;28;20629;-72
2021/06/25 05:11:23;;;;;;;61.15;39.83;;;;;;;16.79;100.00;99636.94;5092239;28;20222;-71
2021/06/25 05:13:49;;;;;;;53.17;38.15;;;;;;;16.70;100.00;99635.84;5091959;28;20184;-73
2021/06/25 05:16:16;;;;;;;54.28;38.60;;;;;;;16.70;100.00;99630.41;5092234;28;20693;-71
2021/06/25 05:18:42;;;;;;;58.28;38.00;;;;;;;16.71;100.00;99636.69;5092029;28;20271;-71
2021/06/25 05:21:09;;;;;;;48.38;37.13;;;;;;;16.68;100.00;99635.09;5091952;28;20283;-71
2021/06/25 05:23:37;;;;;;;57.78;40.25;;;;;;;16.72;100.00;99644.75;5091842;28;20204;-73
2021/06/25 05:26:04;;;;;;;49.20;37.40;;;;;;;16.81;100.00;99643.16;5092241;28;20253;-72
2021/06/25 05:28:31;;;;;;;52.90;38.38;;;;;;;16.85;100.00;99642.75;5095328;28;20227;-72
2021/06/25 05:30:58;;;;;;;45.95;37.15;;;;;;;16.99;100.00;99632.59;5096090;28;20208;-71
2021/06/25 05:33:24;;;;;;;52.92;39.58;;;;;;;17.03;100.00;99642.22;5095680;28;20294;-72
2021/06/25 05:35:51;;;;;;;51.38;38.33;;;;;;;17.14;100.00;99641.28;5096055;28;20178;-71
2021/06/25 05:38:18;;;;;;;49.40;37.00;;;;;;;17.34;100.00;99640.44;5096160;28;20244;-71
2021/06/25 05:40:46;;;;;;;48.67;37.53;;;;;;;17.49;100.00;99638.28;5096019;28;20288;-71
2021/06/25 05:43:13;;;;;;;49.47;36.17;;;;;;;17.41;100.00;99647.13;5096305;28;20185;-71
2021/06/25 05:45:41;;;;;;;49.95;38.17;;;;;;;17.41;100.00;99651.69;5095558;28;20197;-72
2021/06/25 05:48:08;;;;;;;46.83;36.50;;;;;;;17.36;100.00;99649.34;5096255;28;20191;-72
2021/06/25 05:50:37;;;;;;;47.80;35.30;;;;;;;17.60;100.00;99643.66;5095790;28;20522;-70
2021/06/25 05:53:04;;;;;;;46.85;35.13;;;;;;;17.81;97.42;99648.22;5095770;28;20300;-71
2021/06/25 05:55:30;;;;;;;44.40;34.60;;;;;;;17.67;97.74;99641.28;5095924;28;20184;-71
2021/06/25 05:57:59;;;;;;;47.78;35.15;;;;;;;17.50;97.58;99657.22;5113599;28;20207;-72
2021/06/25 06:00:26;;;;;;;48.58;36.75;;;;;;;17.38;98.77;99652.81;5116166;28;20205;-71
2021/06/25 06:02:52;;;;;;;50.78;36.85;;;;;;;17.39;100.00;99659.09;5114344;28;20231;-69
2021/06/25 06:05:19;;;;;;;49.70;38.00;;;;;;;17.38;99.00;99658.25;5097633;28;20312;-72
2021/06/25 06:07:46;;;;;;;55.85;38.70;;;;;;;17.55;99.45;99662.25;5095654;28;20313;-72
2021/06/25 06:10:13;;;;;;;51.60;36.45;;;;;;;17.48;97.32;99663.78;5095953;28;20285;-71
2021/06/25 06:12:40;;;;;;;52.50;38.30;;;;;;;17.56;97.81;99663.97;5109116;28;20243;-71
2021/06/25 06:15:09;;;;;;;47.92;37.22;;;;;;;17.71;97.61;99657.22;5108375;28;20200;-72
2021/06/25 06:17:38;;;;;;;50.30;37.17;;;;;;;17.94;96.38;99659.81;5096083;28;20669;-70
2021/06/25 06:20:06;;;;;;;49.63;37.95;;;;;;;17.75;95.42;99662.38;5099313;28;20193;-72
2021/06/25 06:31:14;;;;;;;51.83;39.28;;;;;;;17.61;95.75;99648.09;5063854;28;20710;-71
2021/06/25 06:33:45;;;;;;;50.45;39.33;;;;;;;17.53;96.25;99666.13;5095535;28;20537;-72
2021/06/25 06:36:16;;;;;;;53.45;39.47;;;;;;;17.48;96.86;99663.78;5095107;28;20207;-72
2021/06/25 06:38:45;;;;;;;53.95;39.65;;;;;;;17.36;98.20;99665.69;5095030;28;20284;-72
2021/06/25 06:41:11;;;;;;;54.00;38.13;;;;;;;17.43;98.35;99661.44;5095116;28;20570;-72
2021/06/25 06:43:40;;;;;;;52.80;40.60;;;;;;;17.52;97.42;99665.22;5095287;28;20220;-72
2021/06/25 06:46:09;;;;;;;49.20;38.03;;;;;;;17.54;96.88;99665.97;5095042;28;20193;-73
2021/06/25 06:48:36;;;;;;;57.55;39.85;;;;;;;17.40;98.01;99667.16;5095336;28;20189;-71
2021/06/25 06:51:03;;;;;;;52.20;40.15;;;;;;;17.39;98.29;99676.31;5094948;28;20205;-72
2021/06/25 06:53:30;;;;;;;52.72;40.83;;;;;;;17.28;98.40;99669.06;5095386;28;20609;-73
2021/06/25 06:55:57;;;;;;;60.47;40.67;;;;;;;17.22;99.33;99674.16;5095030;28;20190;-72
2021/06/25 06:58:23;;;;;;;55.67;41.70;;;;;;;17.22;99.21;99674.16;5094968;28;20299;-72
2021/06/25 07:00:50;;;;;;;57.90;42.80;;;;;;;17.15;99.00;99673.81;5095057;28;20227;-73
2021/06/25 07:03:18;;;;;;;52.90;41.50;;;;;;;17.38;98.22;99681.88;5094423;28;20288;-73
2021/06/25 07:05:44;;;;;;;59.42;44.10;;;;;;;17.26;96.96;99678.34;5094848;28;20275;-72
2021/06/25 07:08:11;;;;;;;61.05;42.92;;;;;;;17.36;96.61;99682.00;5094517;28;20328;-73
2021/06/25 07:10:38;;;;;;;60.58;42.42;;;;;;;17.20;96.49;99687.88;5095007;28;20288;-71
2021/06/25 07:13:05;;;;;;;59.55;43.15;;;;;;;17.33;95.83;99685.00;5094628;28;20295;-73
2021/06/25 07:15:32;;;;;;;60.70;41.03;;;;;;;17.33;94.83;99685.00;5093992;28;20288;-72
2021/06/25 07:18:00;;;;;;;59.45;42.00;;;;;;;17.44;94.83;99690.41;5094425;28;20190;-72
2021/06/25 07:20:28;;;;;;;60.47;44.00;;;;;;;17.44;94.77;99686.81;5094561;28;20618;-70
2021/06/25 07:22:54;;;;;;;62.60;42.63;;;;;;;17.46;95.32;99691.13;5093985;28;20239;-71
2021/06/25 07:25:21;;;;;;;62.15;43.08;;;;;;;17.74;92.36;99690.63;5097381;28;20606;-72
2021/06/25 07:27:48;;;;;;;59.28;43.83;;;;;;;17.75;91.22;99686.88;5114403;28;20246;-71
2021/06/25 07:30:16;;;;;;;61.22;43.60;;;;;;;17.72;93.05;99688.88;5098124;28;20216;-72
2021/06/25 07:32:43;;;;;;;58.78;41.65;;;;;;;18.02;91.74;99695.44;5094203;28;20275;-73
2021/06/25 07:35:10;;;;;;;55.72;41.28;;;;;;;18.08;92.02;99694.00;5093781;28;20208;-71
2021/06/25 07:37:38;;;;;;;53.72;42.53;;;;;;;17.88;92.19;99687.56;5093809;28;20659;-71
2021/06/25 07:40:07;;;;;;;57.72;40.90;;;;;;;18.19;91.46;99682.16;5104345;28;20577;-72
2021/06/25 07:42:34;;;;;;;63.42;42.80;;;;;;;18.35;89.59;99693.44;5113576;28;20611;-73
2021/06/25 07:45:04;;;;;;;52.45;40.35;;;;;;;18.53;88.50;99699.97;5113828;28;20194;-72
2021/06/25 07:47:31;;;;;;;57.92;42.63;;;;;;;18.64;87.63;99707.19;5114359;28;20206;-71
2021/06/25 07:49:57;;;;;;;55.75;43.38;;;;;;;18.70;87.83;99697.56;5113794;28;20289;-72
2021/06/25 07:52:24;;;;;;;54.28;43.10;;;;;;;18.88;86.33;99695.94;5097324;28;20538;-72
2021/06/25 07:54:52;;;;;;;53.03;41.05;;;;;;;18.98;84.67;99692.38;5093572;28;20210;-72
2021/06/25 07:57:19;;;;;;;52.78;40.65;;;;;;;19.22;83.95;99695.56;5113418;28;20291;-72
2021/06/25 07:59:45;;;;;;;60.47;51.22;;;;;;;19.19;83.96;99698.56;5113788;28;20184;-73
2021/06/25 08:02:12;;;;;;;56.45;43.80;;;;;;;19.25;81.08;99694.44;5113660;28;20661;-72
2021/06/25 08:04:44;;;;;;;60.15;44.22;;;;;;;19.48;80.44;99684.94;5111625;28;20684;-72
2021/06/25 08:07:11;;;;;;;59.08;42.80;;;;;;;19.47;79.07;99685.06;5113556;28;20221;-70
2021/06/25 08:09:37;;;;;;;59.33;42.67;;;;;;;19.46;78.62;99688.81;5111367;28;20289;-73
2021/06/25 08:12:07;;;;;;;55.58;41.50;;;;;;;19.52;78.74;99680.91;5097856;28;20580;-72
2021/06/25 08:14:34;;;;;;;52.10;40.80;;;;;;;19.40;79.13;99682.03;5092931;28;20203;-71
2021/06/25 08:17:00;;;;;;;51.35;40.40;;;;;;;19.43;79.20;99673.59;5093200;28;20868;-72
2021/06/25 08:19:27;;;;;;;53.35;39.42;;;;;;;19.78;78.43;99674.88;5092982;28;20250;-72
2021/06/25 08:21:54;;;;;;;50.53;39.10;;;;;;;20.34;73.89;99687.66;5092925;28;20275;-73
2021/06/25 08:24:20;;;;;;;49.03;39.87;;;;;;;19.90;73.95;99679.19;5093482;28;20278;-72
2021/06/25 08:26:47;;;;;;;50.30;40.87;;;;;;;19.45;77.42;99681.66;5093355;28;20502;-73
2021/06/25 08:29:15;;;;;;;53.33;39.83;;;;;;;19.76;75.20;99687.81;5093247;28;20441;-73
2021/06/25 08:31:42;;;;;;;56.67;39.67;;;;;;;19.72;74.49;99692.72;5093581;28;20454;-72
2021/06/25 08:34:10;;;;;;;49.50;40.30;;;;;;;19.96;72.62;99688.66;5093330;28;20511;-72
2021/06/25 08:36:37;;;;;;;48.80;39.20;;;;;;;20.19;71.64;99689.16;5093196;28;20188;-73
2021/06/25 08:39:04;;;;;;;44.73;37.53;;;;;;;20.53;70.46;99678.53;5093579;28;20441;-72
2021/06/25 08:41:31;;;;;;;46.53;37.90;;;;;;;20.45;68.06;99683.88;5096872;28;20421;-74
2021/06/25 08:43:58;;;;;;;47.63;39.50;;;;;;;20.54;68.55;99674.78;5113350;28;20429;-72
2021/06/25 08:46:30;;;;;;;47.13;35.90;;;;;;;20.88;66.27;99678.81;5113739;28;20676;-73
2021/06/25 08:49:00;;;;;;;46.83;36.50;;;;;;;20.85;65.40;99676.34;5113521;28;20463;-72
2021/06/25 08:51:27;;;;;;;42.47;36.60;;;;;;;20.65;66.68;99678.38;5113589;28;20490;-73
2021/06/25 08:53:54;;;;;;;47.67;36.80;;;;;;;20.92;66.67;99681.09;5113289;28;20445;-72
2021/06/25 08:56:20;;;;;;;48.30;37.73;;;;;;;20.43;68.63;99674.97;5113463;28;20773;-73
2021/06/25 08:58:47;;;;;;;53.90;39.00;;;;;;;20.44;68.98;99670.34;5113233;28;20945;-71
2021/06/25 09:01:15;;;;;;;45.80;36.70;;;;;;;20.60;68.58;99674.22;5113409;28;20798;-73
2021/06/25 09:03:51;;;;;;;44.77;37.37;;;;;;;20.28;69.94;99669.13;5117522;28;20813;-73
2021/06/25 09:06:18;;;;;;;41.57;33.67;;;;;;;20.64;68.55;99672.00;5118019;28;20793;-73
2021/06/25 09:08:45;;;;;;;41.70;35.03;;;;;;;20.10;69.74;99677.25;5115263;27;20508;-73
2021/06/25 09:11:23;;;;;;;47.03;35.63;;;;;;;19.76;71.94;99677.78;5099829;28;20441;-74
2021/06/25 09:13:57;;;;;;;39.43;33.57;;;;;;;19.86;71.12;99676.88;5096725;28;20447;-72
2021/06/25 09:16:26;;;;;;;36.13;31.27;;;;;;;19.76;70.62;99668.69;5097212;28;20497;-72
2021/06/25 09:19:02;;;;;;;37.83;31.20;;;;;;;19.94;70.96;99669.69;5097245;28;20452;-73
2021/06/25 09:21:30;;;;;;;37.70;31.27;;;;;;;19.79;70.61;99669.28;5096897;28;20873;-73
2021/06/25 09:23:57;;;;;;;40.05;32.47;;;;;;;19.95;69.61;99660.47;5101981;28;20540;-73
2021/06/25 09:26:31;;;;;;;36.57;31.30;;;;;;;19.91;69.12;99667.22;5116385;28;20219;-72
2021/06/25 09:29:10;;;;;;;46.97;32.50;;;;;;;19.78;67.99;99672.13;5116733;28;20480;-73
2021/06/25 09:31:37;;;;;;;39.67;31.85;;;;;;;19.96;68.00;99669.50;5117366;28;20903;-72
2021/06/25 09:34:05;;;;;;;43.03;32.50;;;;;;;20.29;65.70;99670.00;5116508;27;20179;-73
2021/06/25 09:36:33;;;;;;;36.17;30.40;;;;;;;20.51;64.62;99669.63;5116803;28;20436;-72
2021/06/25 09:39:02;;;;;;;39.33;32.27;;;;;;;20.90;63.02;99666.69;5116385;28;20199;-74
2021/06/25 09:41:29;;;;;;;37.50;30.40;;;;;;;21.00;63.13;99672.94;5117012;28;20921;-72
2021/06/25 09:43:58;;;;;;;38.90;30.53;;;;;;;21.00;62.37;99662.00;5116606;28;20418;-73
2021/06/25 09:46:29;;;;;;;33.57;28.63;;;;;;;21.03;62.84;99678.13;5116474;28;20468;-72
2021/06/25 09:48:58;;;;;;;31.20;27.27;;;;;;;20.80;63.17;99668.63;5116386;28;20975;-73
2021/06/25 09:51:27;;;;;;;32.27;26.10;;;;;;;20.30;65.18;99671.72;5116732;28;20421;-72
2021/06/25 09:54:08;;;;;;;29.87;26.30;;;;;;;20.54;63.82;99672.03;5108281;28;20532;-72
2021/06/25 09:56:38;;;;;;;29.70;25.63;;;;;;;20.81;61.30;99673.09;5095738;28;20879;-73
2021/06/25 09:59:32;;;;;;;29.30;23.07;;;;;;;20.79;59.93;99675.13;5080181;28;20426;-73
2021/06/25 10:01:58;;;;;;;25.50;22.77;;;;;;;20.96;59.64;99682.50;5095939;28;20454;-74
2021/06/25 10:04:35;;;;;;;27.07;21.50;;;;;;;20.77;59.83;99674.41;5095242;28;20546;-72
2021/06/25 10:07:13;;;;;;;24.13;21.43;;;;;;;21.14;59.43;99674.31;5095689;28;20849;-74
2021/06/25 10:09:41;;;;;;;25.17;22.60;;;;;;;21.55;58.61;99668.38;5095970;28;20481;-72
2021/06/25 10:12:10;;;;;;;28.93;25.53;;;;;;;21.94;57.83;99659.78;5095126;28;20449;-74
2021/06/25 10:14:37;;;;;;;26.50;23.13;;;;;;;22.23;56.30;99660.34;5096014;28;20431;-73
2021/06/25 10:17:05;;;;;;;27.03;22.60;;;;;;;22.76;55.60;99660.22;5096089;28;20607;-73
2021/06/25 10:19:32;;;;;;;18.43;16.43;;;;;;;22.88;51.24;99658.88;5095559;28;20483;-73
2021/06/25 10:22:02;;;;;;;14.93;13.00;;;;;;;22.64;51.57;99663.28;5096746;28;20936;-73
2021/06/25 10:24:32;;;;;;;13.07;10.73;;;;;;;22.21;49.86;99656.00;5106941;28;20879;-72
2021/06/25 10:27:01;;;;;;;11.77;10.57;;;;;;;22.59;48.76;99659.28;5115837;28;20512;-74
2021/06/25 10:29:28;;;;;;;14.27;11.93;;;;;;;22.39;49.14;99655.97;5096737;28;20446;-73
2021/06/25 10:31:56;;;;;;;12.47;11.27;;;;;;;22.98;47.94;99658.75;5095418;28;20537;-72
2021/06/25 10:34:23;;;;;;;12.00;10.73;;;;;;;22.63;47.95;99666.19;5095648;28;20454;-72
2021/06/25 10:36:51;;;;;;;11.20;10.20;;;;;;;21.90;48.76;99652.91;5095079;28;20488;-74
2021/06/25 10:39:18;;;;;;;11.60;9.43;;;;;;;21.34;48.38;99657.72;5095354;28;20787;-73
2021/06/25 10:41:51;;;;;;;10.80;9.80;;;;;;;21.25;49.88;99654.03;5115905;28;20476;-73
2021/06/25 10:44:38;;;;;;;11.00;9.33;;;;;;;21.24;48.79;99649.59;5115972;28;20835;-74
2021/06/25 10:47:32;;;;;;;10.50;9.47;;;;;;;21.52;48.99;99661.34;5115797;28;20906;-73
2021/06/25 10:50:26;;;;;;;11.97;10.67;;;;;;;21.73;49.71;99661.00;5090791;28;20568;-73
2021/06/25 10:53:28;;;;;;;13.40;12.10;;;;;;;21.67;50.59;99663.53;5090629;28;20872;-73
2021/06/25 10:56:21;;;;;;;13.40;12.00;;;;;;;22.04;48.57;99658.63;5115509;28;20996;-74
2021/06/25 10:58:50;;;;;;;16.00;11.00;;;;;;;22.41;48.53;99656.63;5113322;28;20540;-73
2021/06/25 11:01:18;;;;;;;12.43;11.13;;;;;;;22.78;47.79;99649.94;5115105;28;20851;-73
2021/06/25 11:03:47;;;;;;;13.03;11.57;;;;;;;23.01;48.02;99651.06;5114800;28;20473;-73
2021/06/25 11:06:53;;;;;;;12.37;11.10;;;;;;;23.06;47.76;99651.41;5114482;28;20425;-75
2021/06/25 11:09:19;;;;;;;15.13;12.07;;;;;;;22.94;48.11;99641.75;5071833;28;20491;-73
2021/06/25 11:11:47;;;;;;;16.27;10.20;;;;;;;23.41;46.94;99640.31;5107131;28;20922;-73
2021/06/25 11:14:29;;;;;;;11.30;10.20;;;;;;;23.19;47.05;99641.84;5114608;28;20416;-74
2021/06/25 11:16:56;;;;;;;10.57;9.50;;;;;;;23.05;46.34;99644.22;5105929;28;20717;-72
2021/06/25 11:19:40;;;;;;;8.87;8.07;;;;;;;23.19;44.56;99653.69;5114901;27;20440;-72
2021/06/25 11:22:42;;;;;;;9.57;8.70;;;;;;;23.36;44.25;99645.44;5114616;27;20444;-72
2021/06/25 11:25:15;;;;;;;12.10;8.20;;;;;;;22.97;44.41;99649.66;5107523;28;20449;-73
2021/06/25 11:28:21;;;;;;;8.83;7.93;;;;;;;22.36;45.79;99648.91;5114232;28;20461;-73
2021/06/25 11:31:09;;;;;;;9.30;8.50;;;;;;;21.59;46.98;99640.50;5114441;28;20450;-74